createdAt,value
2023-04-14T01:21:58.302Z,0.77
2023-04-14T01:24:30.191Z,1.10
2023-04-14T01:27:02.077Z,1.97
2023-04-14T01:29:34.209Z,1.17
2023-04-14T01:32:07.001Z,1.60
2023-04-14T01:34:39.708Z,1.37
2023-04-14T01:37:11.603Z,1.13
2023-04-14T01:39:43.397Z,1.70
2023-04-14T01:42:15.230Z,2.70
2023-04-14T01:44:47.070Z,1.83
2023-04-14T01:47:18.968Z,2.57
2023-04-14T01:49:50.799Z,1.50
2023-04-14T01:52:22.657Z,1.10
2023-04-14T01:54:54.848Z,1.27
2023-04-14T01:57:26.698Z,1.53
2023-04-14T01:59:58.583Z,1.50
2023-04-14T02:02:30.530Z,1.73
2023-04-14T02:05:02.544Z,1.53
2023-04-14T02:07:34.368Z,1.70
2023-04-14T02:10:06.163Z,2.67
2023-04-14T02:12:37.944Z,1.73
2023-04-14T02:15:09.797Z,1.77
2023-04-14T02:17:41.709Z,1.57
2023-04-14T02:20:13.566Z,1.43
2023-04-14T02:22:45.764Z,1.93
2023-04-14T02:25:17.663Z,1.13
2023-04-14T02:27:49.553Z,2.00
2023-04-14T02:30:21.345Z,1.77
2023-04-14T02:32:53.262Z,1.13
2023-04-14T02:35:25.231Z,1.33
2023-04-14T02:37:57.052Z,2.03
2023-04-14T02:40:28.928Z,1.60
2023-04-14T02:43:00.856Z,1.90
2023-04-14T02:45:32.888Z,1.13
2023-04-14T02:48:04.802Z,1.43
2023-04-14T02:50:37.256Z,1.30
2023-04-14T02:53:10.841Z,3.53
2023-04-14T02:55:42.662Z,1.97
2023-04-14T02:58:14.840Z,1.30
2023-04-14T03:00:47.067Z,3.00
2023-04-14T03:03:19.155Z,2.67
2023-04-14T03:05:52.777Z,2.80
2023-04-14T03:08:24.880Z,1.50
2023-04-14T03:10:57.098Z,1.80
2023-04-14T03:13:30.235Z,2.27
2023-04-14T03:16:03.293Z,2.20
2023-04-14T03:18:36.997Z,1.63
2023-04-14T03:21:09.232Z,2.13
2023-04-14T03:23:41.695Z,1.93
2023-04-14T03:26:13.854Z,1.60
2023-04-14T03:28:45.790Z,2.43
2023-04-14T03:31:17.940Z,1.40
2023-04-14T03:33:56.843Z,1.40
2023-04-14T03:36:30.440Z,1.63
2023-04-14T03:39:02.716Z,1.90
2023-04-14T03:41:36.772Z,2.00
2023-04-14T03:44:08.809Z,1.70
2023-04-14T03:46:40.688Z,2.77
2023-04-14T03:49:13.100Z,2.67
2023-04-14T03:51:45.014Z,3.20
2023-04-14T03:54:16.936Z,2.23
2023-04-14T03:56:50.399Z,2.70
2023-04-14T03:59:22.437Z,2.07
2023-04-14T04:01:54.867Z,2.57
2023-04-14T04:04:27.421Z,2.33
2023-04-14T04:06:59.421Z,2.77
2023-04-14T04:09:31.441Z,1.83
2023-04-14T04:12:03.867Z,2.60
2023-04-14T04:14:38.528Z,2.10
2023-04-14T04:17:10.230Z,1.97
2023-04-14T04:19:42.536Z,1.93
2023-04-14T04:22:14.672Z,1.43
2023-04-14T04:24:46.504Z,2.50
2023-04-14T04:27:27.632Z,1.80
2023-04-14T04:29:53.638Z,1.90
2023-04-14T04:32:25.763Z,2.03
2023-04-14T04:34:57.763Z,2.10
2023-04-14T04:37:29.804Z,1.80
2023-04-14T04:40:01.989Z,2.23
2023-04-14T04:42:34.190Z,1.63
2023-04-14T04:45:06.667Z,1.90
2023-04-14T04:47:40.304Z,1.80
2023-04-14T04:50:12.246Z,1.60
2023-04-14T04:52:44.057Z,1.80
2023-04-14T04:55:16.256Z,2.07
2023-04-14T04:57:48.118Z,2.53
2023-04-14T05:00:19.958Z,2.23
2023-04-14T05:02:51.931Z,1.87
2023-04-14T05:05:23.928Z,2.10
2023-04-14T05:07:55.805Z,2.10
2023-04-14T05:10:27.757Z,1.77
2023-04-14T05:12:59.648Z,2.27
2023-04-14T05:15:31.499Z,1.80
2023-04-14T05:18:03.318Z,1.53
2023-04-14T05:20:35.219Z,1.60
2023-04-14T05:23:07.122Z,1.70
2023-04-14T05:25:38.940Z,1.70
2023-04-14T05:28:10.760Z,1.57
2023-04-14T05:30:42.702Z,1.80
2023-04-14T05:33:14.602Z,1.87
2023-04-14T05:35:46.520Z,2.03
2023-04-14T05:38:18.407Z,1.90
2023-04-14T05:40:50.275Z,1.47
2023-04-14T05:43:22.114Z,1.70
2023-04-14T05:45:53.978Z,1.77
2023-04-14T05:48:25.860Z,1.70
2023-04-14T05:50:57.816Z,1.60
2023-04-14T05:53:29.625Z,2.87
2023-04-14T05:56:01.652Z,1.50
2023-04-14T05:58:33.504Z,1.50
2023-04-14T06:01:05.344Z,2.10
2023-04-14T06:03:40.128Z,2.30
2023-04-14T06:06:10.656Z,1.73
2023-04-14T06:08:42.562Z,1.40
2023-04-14T06:11:14.948Z,1.90
2023-04-14T06:13:47.155Z,1.63
2023-04-14T06:16:19.139Z,1.80
2023-04-14T06:18:51.010Z,1.87
2023-04-14T06:21:22.988Z,2.20
2023-04-14T06:23:54.850Z,1.93
2023-04-14T06:26:26.935Z,1.37
2023-04-14T06:28:58.905Z,1.67
2023-04-14T06:31:31.135Z,1.80
2023-04-14T06:34:03.153Z,1.63
2023-04-14T06:36:35.203Z,1.70
2023-04-14T06:39:07.093Z,1.77
2023-04-14T06:41:38.989Z,2.53
2023-04-14T06:44:10.829Z,1.47
2023-04-14T06:46:42.791Z,1.70
2023-04-14T06:49:14.652Z,1.37
2023-04-14T06:51:46.496Z,1.23
2023-04-14T06:54:18.401Z,1.23
2023-04-14T06:56:50.869Z,2.30
2023-04-14T06:59:22.764Z,1.13
2023-04-14T07:01:54.652Z,1.33
2023-04-14T07:04:26.937Z,1.40
2023-04-14T07:06:58.872Z,1.53
2023-04-14T07:09:30.735Z,1.53
2023-04-14T07:12:02.744Z,1.33
2023-04-14T07:14:34.747Z,1.60
2023-04-14T07:17:06.594Z,1.27
2023-04-14T07:19:38.504Z,1.07
2023-04-14T07:22:10.331Z,1.47
2023-04-14T07:24:42.193Z,1.60
2023-04-14T07:27:14.073Z,1.63
2023-04-14T07:29:45.952Z,1.97
2023-04-14T07:32:17.822Z,1.23
2023-04-14T07:34:49.710Z,1.47
2023-04-14T07:37:21.558Z,1.13
2023-04-14T07:39:53.443Z,2.10
2023-04-14T07:42:25.277Z,1.90
2023-04-14T07:44:57.142Z,1.03
2023-04-14T07:47:29.048Z,0.97
2023-04-14T07:50:01.164Z,0.80
2023-04-14T07:52:33.028Z,1.00
2023-04-14T07:55:04.923Z,0.90
2023-04-14T07:57:36.749Z,0.90
2023-04-14T08:00:08.610Z,0.60
2023-04-14T08:02:46.120Z,0.80
2023-04-14T08:05:18.221Z,1.20
2023-04-14T08:07:50.899Z,1.53
2023-04-14T08:10:22.756Z,0.93
2023-04-14T08:12:54.621Z,1.07
2023-04-14T08:15:26.493Z,1.33
2023-04-14T08:17:58.394Z,0.53
2023-04-14T08:20:30.290Z,0.80
2023-04-14T08:23:02.118Z,2.03
2023-04-14T08:25:34.082Z,0.97
2023-04-14T08:28:05.919Z,1.50
2023-04-14T08:30:38.060Z,1.73
2023-04-14T08:33:09.965Z,0.73
2023-04-14T08:35:43.015Z,0.90
2023-04-14T08:38:15.436Z,1.10
2023-04-14T08:40:47.285Z,1.13
2023-04-14T08:43:19.184Z,0.70
2023-04-14T08:45:50.979Z,0.77
2023-04-14T08:48:25.047Z,0.63
2023-04-14T08:50:56.230Z,0.60
2023-04-14T08:53:28.268Z,0.70
2023-04-14T08:56:00.136Z,0.80
2023-04-14T08:58:31.946Z,0.50
2023-04-14T09:01:03.879Z,0.70
2023-04-14T09:03:36.069Z,1.30
2023-04-14T09:06:08.323Z,0.83
2023-04-14T09:08:40.207Z,0.63
2023-04-14T09:11:11.986Z,0.40
2023-04-14T09:13:43.802Z,0.90
2023-04-14T09:16:15.750Z,1.23
2023-04-14T09:18:47.665Z,1.23
2023-04-14T09:21:50.018Z,0.80
2023-04-14T09:23:54.530Z,0.87
2023-04-14T09:26:26.729Z,1.03
2023-04-14T09:28:59.837Z,0.80
2023-04-14T09:31:31.870Z,0.97
2023-04-14T09:34:04.048Z,0.90
2023-04-14T09:36:36.251Z,1.30
2023-04-14T09:39:08.143Z,0.67
2023-04-14T09:41:39.942Z,1.23
2023-04-14T09:44:11.777Z,0.80
2023-04-14T09:46:43.712Z,0.77
2023-04-14T09:49:15.874Z,0.67
2023-04-14T09:51:47.730Z,0.67
2023-04-14T09:54:19.558Z,0.87
2023-04-14T09:56:51.400Z,0.87
2023-04-14T09:59:23.230Z,1.03
2023-04-14T10:01:55.134Z,0.67
2023-04-14T10:04:27.189Z,1.67
2023-04-14T10:06:59.005Z,1.30
2023-04-14T10:09:30.938Z,1.23
2023-04-14T10:12:02.778Z,0.87
2023-04-14T10:14:34.703Z,0.90
2023-04-14T10:17:06.489Z,1.20
2023-04-14T10:19:38.277Z,0.80
2023-04-14T10:22:10.099Z,0.53
2023-04-14T10:24:41.972Z,0.90
2023-04-14T10:27:13.856Z,1.03
2023-04-14T10:29:45.648Z,0.87
2023-04-14T10:32:17.530Z,0.90
2023-04-14T10:34:49.507Z,0.70
2023-04-14T10:37:21.272Z,0.60
2023-04-14T10:39:53.116Z,0.83
2023-04-14T10:42:25.021Z,0.97
2023-04-14T10:44:56.854Z,0.80
2023-04-14T10:47:28.706Z,1.00
2023-04-14T10:50:00.488Z,0.90
2023-04-14T10:52:32.300Z,1.10
2023-04-14T10:55:04.148Z,0.50
2023-04-14T10:57:38.275Z,0.67
2023-04-14T11:00:09.415Z,1.07
2023-04-14T11:02:41.379Z,0.73
2023-04-14T11:05:13.344Z,0.67
2023-04-14T11:07:45.194Z,0.93
2023-04-14T11:10:17.081Z,0.50
2023-04-14T11:12:49.062Z,0.70
2023-04-14T11:15:21.015Z,0.60
2023-04-14T11:17:52.912Z,0.67
2023-04-14T11:20:24.991Z,0.70
2023-04-14T11:22:56.950Z,0.67
2023-04-14T11:25:28.828Z,1.00
2023-04-14T11:28:00.686Z,0.60
2023-04-14T11:30:32.546Z,0.70
2023-04-14T11:33:04.630Z,0.70
2023-04-14T11:35:36.589Z,0.47
2023-04-14T11:38:08.409Z,0.40
2023-04-14T11:40:40.252Z,0.60
2023-04-14T11:43:12.121Z,0.60
2023-04-14T11:45:44.066Z,1.73
2023-04-14T11:48:16.071Z,1.67
2023-04-14T11:50:47.947Z,0.83
2023-04-14T11:53:19.836Z,0.73
2023-04-14T11:55:51.656Z,0.77
2023-04-14T11:58:23.511Z,0.60
2023-04-14T12:00:56.308Z,0.40
2023-04-14T12:03:29.393Z,0.60
2023-04-14T12:06:01.993Z,0.77
2023-04-14T12:08:34.122Z,0.87
2023-04-14T12:11:06.109Z,0.47
2023-04-14T12:13:38.000Z,0.43
2023-04-14T12:16:09.835Z,0.40
2023-04-14T12:18:41.615Z,0.40
2023-04-14T12:21:13.436Z,0.40
2023-04-14T12:23:45.314Z,0.60
2023-04-14T12:26:17.939Z,0.60
2023-04-14T12:28:49.710Z,0.70
2023-04-14T12:31:21.647Z,0.70
2023-04-14T12:33:54.865Z,0.60
2023-04-14T12:37:48.130Z,0.70
2023-04-14T12:39:01.064Z,0.50
2023-04-14T12:41:33.238Z,0.60
2023-04-14T12:44:05.112Z,0.50
2023-04-14T12:46:36.999Z,1.00
2023-04-14T12:49:08.986Z,0.30
2023-04-14T12:51:40.803Z,0.57
2023-04-14T12:54:12.680Z,0.60
2023-04-14T12:56:44.459Z,0.80
2023-04-14T12:59:16.337Z,0.47
2023-04-14T13:01:48.844Z,0.50
2023-04-14T13:04:21.496Z,0.40
2023-04-14T13:06:54.117Z,0.23
2023-04-14T13:09:25.948Z,0.50
2023-04-14T13:11:57.845Z,0.50
2023-04-14T13:14:29.836Z,0.63
2023-04-14T13:17:02.755Z,0.40
2023-04-14T13:19:35.260Z,0.50
2023-04-14T13:22:07.052Z,0.68
2023-04-14T13:24:39.552Z,0.35
2023-04-14T13:27:11.986Z,1.15
2023-04-14T13:29:44.361Z,0.20
2023-04-14T13:32:16.910Z,0.25
2023-04-14T13:34:50.108Z,0.85
2023-04-14T13:37:23.208Z,0.60
2023-04-14T13:39:55.706Z,0.68
2023-04-14T13:42:28.073Z,0.40
2023-04-14T13:45:00.557Z,0.50
2023-04-14T13:47:33.136Z,0.40
2023-04-14T13:50:05.605Z,0.80
2023-04-14T13:52:38.017Z,0.60
2023-04-14T13:55:10.460Z,0.60
2023-04-14T13:57:43.006Z,0.42
2023-04-14T14:00:15.429Z,0.68
2023-04-14T14:02:47.974Z,0.80
2023-04-14T14:05:20.562Z,0.72
2023-04-14T14:07:52.999Z,0.50
2023-04-14T14:10:25.465Z,0.40
2023-04-14T14:12:57.876Z,0.55
2023-04-14T14:15:30.504Z,0.40
2023-04-14T14:18:03.094Z,0.60
2023-04-14T14:20:35.623Z,0.42
2023-04-14T14:23:08.118Z,0.62
2023-04-14T14:25:40.699Z,0.70
2023-04-14T14:28:13.084Z,0.40
2023-04-14T14:30:45.493Z,0.50
2023-04-14T14:33:17.999Z,0.60
2023-04-14T14:35:50.448Z,0.62
2023-04-14T14:38:22.413Z,1.05
2023-04-14T14:40:54.314Z,0.42
2023-04-14T14:43:26.221Z,0.40
2023-04-14T14:45:58.129Z,0.60
2023-04-14T14:48:29.977Z,0.90
2023-04-14T14:51:02.193Z,0.47
2023-04-14T14:53:34.009Z,0.53
2023-04-14T14:56:05.841Z,0.80
2023-04-14T14:58:38.460Z,0.40
2023-04-14T15:01:10.338Z,0.50
2023-04-14T15:03:42.445Z,0.37
2023-04-14T15:06:14.353Z,0.40
2023-04-14T15:08:46.228Z,0.50
2023-04-14T15:11:18.068Z,0.40
2023-04-14T15:13:49.948Z,0.57
2023-04-14T15:16:21.876Z,1.17
2023-04-14T15:18:53.850Z,1.17
2023-04-14T15:21:26.095Z,0.40
2023-04-14T15:23:57.999Z,0.40
2023-04-14T15:26:29.967Z,0.60
2023-04-14T15:29:01.802Z,0.60
2023-04-14T15:31:33.665Z,0.60
2023-04-14T15:34:05.706Z,0.63
2023-04-14T15:36:37.506Z,0.40
2023-04-14T15:39:09.672Z,0.57
2023-04-14T15:41:41.537Z,0.87
2023-04-14T15:44:13.564Z,0.37
2023-04-14T15:46:45.620Z,0.40
2023-04-14T15:49:18.496Z,0.50
2023-04-14T15:51:50.632Z,0.70
2023-04-14T15:54:22.521Z,0.70
2023-04-14T15:56:54.442Z,0.57
2023-04-14T15:59:26.339Z,0.60
2023-04-14T16:01:58.285Z,1.17
2023-04-14T16:04:30.564Z,0.50
2023-04-14T16:07:02.633Z,0.50
2023-04-14T16:09:34.721Z,0.53
2023-04-14T16:12:06.803Z,0.30
2023-04-14T16:14:38.737Z,0.80
2023-04-14T16:17:10.707Z,0.67
2023-04-14T16:19:42.559Z,0.40
2023-04-14T16:22:14.384Z,0.30
2023-04-14T16:24:46.220Z,0.50
2023-04-14T16:27:18.156Z,0.30
2023-04-14T16:29:49.951Z,0.50
2023-04-14T16:32:21.782Z,1.17
2023-04-14T16:34:53.700Z,0.47
2023-04-14T16:37:25.864Z,0.60
2023-04-14T16:39:57.828Z,0.60
2023-04-14T16:42:29.663Z,0.43
2023-04-14T16:45:01.537Z,0.50
2023-04-14T16:47:33.694Z,0.50
2023-04-14T16:50:05.904Z,0.43
2023-04-14T16:52:38.028Z,1.13
2023-04-14T16:55:09.862Z,0.50
2023-04-14T16:57:41.920Z,0.57
2023-04-14T17:00:13.881Z,0.70
2023-04-14T17:02:45.901Z,0.33
2023-04-14T17:05:18.063Z,0.60
2023-04-14T17:07:50.089Z,0.40
2023-04-14T17:10:22.004Z,0.30
2023-04-14T17:12:53.928Z,0.30
2023-04-14T17:15:25.951Z,0.83
2023-04-14T17:17:57.868Z,0.30
2023-04-14T17:20:29.884Z,1.40
2023-04-14T17:23:01.812Z,0.40
2023-04-14T17:25:33.796Z,0.60
2023-04-14T17:28:05.767Z,1.17
2023-04-14T17:30:37.730Z,0.80
2023-04-14T17:33:09.576Z,0.57
2023-04-14T17:35:41.442Z,0.90
2023-04-14T17:38:13.420Z,0.50
2023-04-14T17:40:45.277Z,0.60
2023-04-14T17:43:17.258Z,0.50
2023-04-14T17:45:49.129Z,0.67
2023-04-14T17:48:21.068Z,0.60
2023-04-14T17:50:52.943Z,0.67
2023-04-14T17:53:24.896Z,0.47
2023-04-14T17:55:56.961Z,0.50
2023-04-14T17:58:28.781Z,0.60
2023-04-14T18:01:01.217Z,0.93
2023-04-14T18:03:33.417Z,0.60
2023-04-14T18:06:05.429Z,0.40
2023-04-14T18:08:37.902Z,0.50
2023-04-14T18:11:09.771Z,0.43
2023-04-14T18:13:41.614Z,0.60
2023-04-14T18:16:13.494Z,0.80
2023-04-14T18:18:45.353Z,0.50
2023-04-14T18:21:17.329Z,1.70
2023-04-14T18:24:47.844Z,0.50
2023-04-14T18:28:56.014Z,0.50
2023-04-14T18:31:27.940Z,0.67
2023-04-14T18:33:59.931Z,0.50
2023-04-14T18:36:32.098Z,0.80
2023-04-14T18:39:04.139Z,0.70
2023-04-14T18:41:36.221Z,0.57
2023-04-14T18:44:08.466Z,0.30
2023-04-14T18:46:40.415Z,0.70
2023-04-14T18:49:12.300Z,0.60
2023-04-14T18:51:44.123Z,0.63
2023-04-14T18:54:15.954Z,0.50
2023-04-14T18:56:47.851Z,0.63
2023-04-14T18:59:19.680Z,0.50
2023-04-14T19:01:51.605Z,0.67
2023-04-14T19:04:23.642Z,0.70
2023-04-14T19:06:55.575Z,1.77
2023-04-14T19:09:27.430Z,0.80
2023-04-14T19:11:59.314Z,0.80
2023-04-14T19:14:31.131Z,1.27
2023-04-14T19:17:02.978Z,0.67
2023-04-14T19:19:34.837Z,0.70
2023-04-14T19:22:06.752Z,0.90
2023-04-14T19:24:38.603Z,0.70
2023-04-14T19:27:10.482Z,0.80
2023-04-14T19:29:42.391Z,1.00
2023-04-14T19:32:14.400Z,0.60
2023-04-14T19:34:46.288Z,1.47
2023-04-14T19:37:18.106Z,1.00
2023-04-14T19:39:49.894Z,1.43
2023-04-14T19:42:21.823Z,1.60
2023-04-14T19:44:53.674Z,1.60
2023-04-14T19:47:25.517Z,1.67
2023-04-14T19:49:59.253Z,1.33
2023-04-14T19:52:31.270Z,1.10
2023-04-14T19:55:03.256Z,0.90
2023-04-14T19:57:35.269Z,1.33
2023-04-14T20:00:07.144Z,2.10
2023-04-14T20:02:40.782Z,1.67
2023-04-14T20:05:13.304Z,1.53
2023-04-14T20:07:45.473Z,2.07
2023-04-14T20:10:17.385Z,2.00
2023-04-14T20:12:49.207Z,1.87
2023-04-14T20:15:21.077Z,1.30
2023-04-14T20:17:52.912Z,1.37
2023-04-14T20:20:24.745Z,1.53
2023-04-14T20:22:56.579Z,1.43
2023-04-14T20:25:28.538Z,1.30
2023-04-14T20:28:00.357Z,1.70
2023-04-14T20:30:32.343Z,1.13
2023-04-14T20:33:04.362Z,2.20
2023-04-14T20:35:36.211Z,1.40
2023-04-14T20:38:08.122Z,1.53
2023-04-14T20:40:39.941Z,1.30
2023-04-14T20:43:11.790Z,1.47
2023-04-14T20:45:43.647Z,1.40
2023-04-14T20:48:15.418Z,1.30
2023-04-14T20:50:47.236Z,1.57
2023-04-14T20:53:19.136Z,1.60
2023-04-14T20:55:51.136Z,1.20
2023-04-14T20:58:23.054Z,1.30
2023-04-14T21:00:55.296Z,2.00
2023-04-14T21:03:27.927Z,1.50
2023-04-14T21:06:00.506Z,0.97
2023-04-14T21:08:32.549Z,1.30
2023-04-14T21:11:17.049Z,1.40
2023-04-14T21:15:25.499Z,1.33
2023-04-14T21:16:11.758Z,1.03
2023-04-14T21:18:43.741Z,1.30
2023-04-14T21:21:15.743Z,1.00
2023-04-14T21:23:47.561Z,1.30
2023-04-14T21:26:19.393Z,1.00
2023-04-14T21:28:51.272Z,1.40
2023-04-14T21:31:23.154Z,1.70
2023-04-14T21:33:55.009Z,1.30
2023-04-14T21:36:26.953Z,1.33
2023-04-14T21:38:58.840Z,1.13
2023-04-14T21:41:30.695Z,1.50
2023-04-14T21:44:02.504Z,1.47
2023-04-14T21:46:34.354Z,1.60
2023-04-14T21:49:06.153Z,1.20
2023-04-14T21:51:38.008Z,1.10
2023-04-14T21:54:09.927Z,1.20
2023-04-14T21:56:41.801Z,1.83
2023-04-14T21:59:13.742Z,1.40
2023-04-14T22:01:45.638Z,1.70
2023-04-14T22:04:28.872Z,2.13
2023-04-14T22:06:52.046Z,1.67
2023-04-14T22:09:24.474Z,1.40
2023-04-14T22:11:56.335Z,1.70
2023-04-14T22:14:28.300Z,1.60
2023-04-14T22:17:00.177Z,1.70
2023-04-14T22:19:32.167Z,1.37
2023-04-14T22:22:03.999Z,1.07
2023-04-14T22:24:35.851Z,1.30
2023-04-14T22:27:07.737Z,1.40
2023-04-14T22:29:39.568Z,1.43
2023-04-14T22:32:11.391Z,1.10
2023-04-14T22:34:43.221Z,1.50
2023-04-14T22:37:15.126Z,1.73
2023-04-14T22:39:46.929Z,1.77
2023-04-14T22:42:20.048Z,1.70
2023-04-14T22:44:51.906Z,1.10
2023-04-14T22:47:24.118Z,1.40
2023-04-14T22:49:55.968Z,2.33
2023-04-14T22:52:27.759Z,1.47
2023-04-14T22:54:59.583Z,1.30
2023-04-14T22:57:31.463Z,1.93
2023-04-14T23:00:03.309Z,1.50
2023-04-14T23:02:35.282Z,1.33
2023-04-14T23:05:07.323Z,1.90
2023-04-14T23:07:39.201Z,2.10
2023-04-14T23:10:10.997Z,1.43
2023-04-14T23:12:42.846Z,2.23
2023-04-14T23:15:14.669Z,1.47
2023-04-14T23:17:46.568Z,1.60
2023-04-14T23:20:18.511Z,1.40
2023-04-14T23:22:50.501Z,2.70
2023-04-14T23:25:22.363Z,1.50
2023-04-14T23:27:54.231Z,1.57
2023-04-14T23:30:26.101Z,1.57
2023-04-14T23:32:57.922Z,2.27
2023-04-14T23:35:29.952Z,1.50
2023-04-14T23:38:02.539Z,1.70
2023-04-14T23:40:34.759Z,1.63
2023-04-14T23:43:06.547Z,1.50
2023-04-14T23:45:38.412Z,1.80
2023-04-14T23:48:10.274Z,1.50
2023-04-14T23:50:59.959Z,1.43
2023-04-14T23:53:15.522Z,1.50
2023-04-14T23:55:47.337Z,1.43
2023-04-14T23:58:26.377Z,1.60
